createdAt,value
2017-03-02T00:09:27.866Z,10
2017-03-02T00:19:27.991Z,13
2017-03-02T00:29:27.716Z,12
2017-03-02T00:39:28.016Z,11
2017-03-02T00:49:27.830Z,13
2017-03-02T00:59:27.852Z,15
2017-03-02T01:09:27.946Z,16
2017-03-02T01:19:27.800Z,18
2017-03-02T01:29:27.859Z,18
2017-03-02T01:39:27.729Z,23
2017-03-02T01:49:27.874Z,26
2017-03-02T01:59:27.823Z,29
2017-03-02T02:09:27.754Z,29
2017-03-02T02:19:27.816Z,24
2017-03-02T02:29:27.844Z,27
2017-03-02T02:39:27.824Z,30
2017-03-02T02:49:27.793Z,35
2017-03-02T02:59:27.883Z,29
2017-03-02T03:09:27.806Z,31
2017-03-02T03:19:27.858Z,31
2017-03-02T03:29:27.808Z,38
2017-03-02T03:39:27.905Z,33
2017-03-02T03:49:27.835Z,25
2017-03-02T03:59:27.888Z,21
2017-03-02T04:09:27.915Z,11
2017-03-02T04:19:27.916Z,7
2017-03-02T04:29:27.907Z,6
2017-03-02T04:39:27.827Z,3
2017-03-02T04:49:27.938Z,4
2017-03-02T04:59:27.882Z,8
2017-03-02T05:09:28.484Z,6
2017-03-02T05:19:27.890Z,7
2017-03-02T05:29:27.974Z,7
2017-03-02T05:39:27.968Z,9
2017-03-02T05:49:27.993Z,10
2017-03-02T05:59:27.897Z,8
2017-03-02T06:09:27.997Z,9
2017-03-02T06:19:27.998Z,6
2017-03-02T06:29:28.094Z,12
2017-03-02T06:39:27.958Z,12
2017-03-02T06:49:27.947Z,10
2017-03-02T06:59:28.031Z,12
2017-03-02T07:09:27.970Z,13
2017-03-02T07:19:41.632Z,13
2017-03-02T07:29:28.021Z,21
2017-03-02T07:39:28.126Z,14
2017-03-02T07:49:28.039Z,12
2017-03-02T07:59:28.143Z,12
2017-03-02T08:09:28.021Z,5
2017-03-02T08:19:28.013Z,7
2017-03-02T08:29:28.104Z,8
2017-03-02T08:39:28.049Z,3
2017-03-02T08:49:28.105Z,10
2017-03-02T08:59:28.042Z,10
2017-03-02T09:09:28.108Z,9
2017-03-02T09:19:28.048Z,6
2017-03-02T09:29:28.193Z,9
2017-03-02T09:39:28.111Z,11
2017-03-02T09:49:28.122Z,7
2017-03-02T09:59:28.090Z,5
2017-03-02T10:09:28.190Z,9
2017-03-02T10:19:28.089Z,7
2017-03-02T10:29:28.395Z,10
2017-03-02T10:39:28.184Z,10
2017-03-02T10:49:28.122Z,11
2017-03-02T10:59:28.141Z,9
2017-03-02T11:09:28.177Z,7
2017-03-02T11:19:28.161Z,6
2017-03-02T11:29:28.211Z,6
2017-03-02T11:39:28.253Z,8
2017-03-02T11:49:28.244Z,14
2017-03-02T11:59:28.499Z,7
2017-03-02T12:09:28.173Z,13
2017-03-02T12:19:28.220Z,13
2017-03-02T12:29:28.290Z,16
2017-03-02T12:39:28.249Z,12
2017-03-02T12:49:28.207Z,12
2017-03-02T12:59:28.705Z,12
2017-03-02T13:09:28.444Z,12
2017-03-02T13:19:28.339Z,11
2017-03-02T13:29:28.287Z,11
2017-03-02T13:39:28.256Z,18
2017-03-02T13:49:28.499Z,11
2017-03-02T13:59:28.324Z,11
2017-03-02T14:09:28.523Z,9
2017-03-02T14:19:29.091Z,13
2017-03-02T14:29:28.414Z,10
2017-03-02T14:39:28.499Z,11
2017-03-02T14:49:28.434Z,21
2017-03-02T14:59:29.396Z,15
2017-03-02T15:09:28.517Z,9
2017-03-02T15:19:28.444Z,14
2017-03-02T15:29:28.527Z,10
2017-03-02T15:39:28.414Z,7
2017-03-02T15:49:28.460Z,11
2017-03-02T15:59:29.576Z,14
2017-03-02T16:09:28.678Z,8
2017-03-02T16:19:28.562Z,9
2017-03-02T16:29:28.506Z,9
2017-03-02T16:39:28.483Z,7
2017-03-02T16:49:28.456Z,8
2017-03-02T16:59:28.466Z,11
2017-03-02T17:09:28.506Z,11
2017-03-02T17:19:28.440Z,10
2017-03-02T17:29:28.524Z,12
2017-03-02T17:39:28.500Z,4
2017-03-02T17:49:28.740Z,7
2017-03-02T17:59:28.517Z,6
2017-03-02T18:09:28.782Z,11
2017-03-02T18:19:28.554Z,7
2017-03-02T18:29:28.553Z,11
2017-03-02T18:39:28.543Z,5
2017-03-02T18:49:28.620Z,13
2017-03-02T18:59:28.532Z,9
2017-03-02T19:09:28.562Z,10
2017-03-02T19:19:28.693Z,10
2017-03-02T19:29:28.666Z,8
2017-03-02T19:39:28.598Z,7
2017-03-02T19:49:28.594Z,8
2017-03-02T19:59:28.674Z,11
2017-03-02T20:09:28.647Z,7
2017-03-02T20:19:28.752Z,7
2017-03-02T20:29:28.605Z,9
2017-03-02T20:39:28.678Z,8
2017-03-02T20:49:28.741Z,7
2017-03-02T20:59:28.637Z,11
2017-03-02T21:09:28.649Z,14
2017-03-02T21:19:28.706Z,13
2017-03-02T21:29:28.781Z,6
2017-03-02T21:39:28.716Z,10
2017-03-02T21:49:28.890Z,9
2017-03-02T21:59:29.864Z,10
2017-03-02T22:09:29.238Z,7
2017-03-02T22:19:29.486Z,12
2017-03-02T22:29:29.307Z,10
2017-03-02T22:39:29.712Z,11
2017-03-02T22:49:29.134Z,16
2017-03-02T22:59:29.269Z,10
2017-03-02T23:09:28.793Z,8
2017-03-02T23:19:29.113Z,12
2017-03-02T23:29:29.004Z,14
2017-03-02T23:39:28.911Z,11
2017-03-02T23:49:28.911Z,15
2017-03-02T23:59:28.899Z,17
